Time;durP1;ratioP1;P1;durP2;ratioP2;P2;SDS_P1;SDS_P2;PMS_P1;PMS_P2;Temp;Humidity;BMP_temperature;BMP_pressure;BME280_temperature;BME280_humidity;BME280_pressure;Samples;Min_cycle;Max_cycle;Signal;HPM_P1;HPM_P2
2023/09/20 00:00:32;;;;;;;12.10;6.65;;;;;;;18.56;63.84;100279.91;5052418;28;20033;-82
2023/09/20 00:02:58;;;;;;;10.63;6.07;;;;;;;18.49;65.12;100282.06;5053851;28;20069;-82
2023/09/20 00:05:24;;;;;;;12.13;7.68;;;;;;;18.40;65.35;100272.84;5064814;28;20025;-82
2023/09/20 00:07:54;;;;;;;9.82;6.22;;;;;;;18.50;65.86;100304.47;5072528;28;20032;-83
2023/09/20 00:10:21;;;;;;;10.95;6.20;;;;;;;18.32;66.38;100276.06;5066101;28;20063;-82
2023/09/20 00:12:46;;;;;;;11.55;6.28;;;;;;;18.50;66.11;100302.59;5052606;28;20029;-83
2023/09/20 00:15:12;;;;;;;13.75;5.95;;;;;;;18.61;65.80;100284.50;5052115;28;20052;-82
2023/09/20 00:17:38;;;;;;;10.63;6.55;;;;;;;18.78;67.10;100287.00;5052296;28;20036;-82
2023/09/20 00:20:14;;;;;;;15.88;7.30;;;;;;;19.01;64.31;100297.31;5052382;28;20032;-82
2023/09/20 00:22:44;;;;;;;11.73;5.93;;;;;;;19.00;65.33;100293.00;5052487;28;20032;-83
2023/09/20 00:25:11;;;;;;;10.45;5.75;;;;;;;19.09;65.03;100287.03;5059252;28;20518;-85
2023/09/20 00:27:38;;;;;;;8.52;6.05;;;;;;;18.95;66.10;100267.84;5070903;28;20651;-82
2023/09/20 00:30:09;;;;;;;9.93;6.13;;;;;;;19.17;64.95;100260.28;5054043;28;20044;-81
2023/09/20 00:32:39;;;;;;;10.45;6.38;;;;;;;19.13;65.05;100270.00;5053690;28;20029;-82
2023/09/20 00:35:10;;;;;;;16.88;8.25;;;;;;;19.06;65.24;100264.06;5053489;28;20417;-82
2023/09/20 00:37:40;;;;;;;13.65;7.57;;;;;;;19.16;64.69;100264.03;5052151;28;20645;-82
2023/09/20 00:40:18;;;;;;;12.85;7.63;;;;;;;18.85;64.87;100196.50;5032724;28;20029;-82
2023/09/20 00:42:46;;;;;;;;;;;;;;;18.62;67.15;100243.72;5046786;28;20031;-82
2023/09/20 00:45:15;;;;;;;11.23;6.40;;;;;;;18.64;66.73;100217.25;5070048;28;20003;-82
2023/09/20 00:47:44;;;;;;;12.85;7.18;;;;;;;19.07;65.43;100222.44;5052153;28;20036;-82
2023/09/20 00:50:11;;;;;;;10.73;6.65;;;;;;;19.22;64.94;100211.59;5054080;28;20056;-83
2023/09/20 00:52:46;;;;;;;10.63;6.30;;;;;;;18.53;67.04;100195.91;5053646;28;20033;-82
2023/09/20 00:55:15;;;;;;;11.05;6.55;;;;;;;18.29;69.01;100191.03;5053774;28;20122;-85
2023/09/20 00:57:56;;;;;;;8.98;5.97;;;;;;;18.75;65.85;100185.66;5053330;28;20475;-86
2023/09/20 01:00:29;;;;;;;10.73;5.88;;;;;;;18.18;66.12;100157.78;5032350;28;20113;-82
2023/09/20 01:02:57;;;;;;;10.65;5.90;;;;;;;18.16;67.60;100181.53;5052297;28;20485;-82
2023/09/20 01:05:23;;;;;;;;;;;;;;;18.05;66.66;100179.91;5056372;28;20020;-84
2023/09/20 01:07:56;;;;;;;12.32;5.72;;;;;;;17.75;68.00;100138.22;5073024;28;19970;-85
2023/09/20 01:10:24;;;;;;;11.13;5.82;;;;;;;18.04;68.96;100171.00;5071102;28;20021;-83
2023/09/20 01:12:57;;;;;;;8.32;5.20;;;;;;;17.91;69.49;100158.00;5053592;28;20037;-83
2023/09/20 01:15:23;;;;;;;9.32;6.45;;;;;;;18.41;68.90;100164.59;5051253;28;20132;-81
2023/09/20 01:17:53;;;;;;;9.80;6.10;;;;;;;18.48;67.49;100167.81;5051470;28;20444;-82
2023/09/20 01:20:19;;;;;;;10.52;5.93;;;;;;;18.33;69.80;100177.78;5051492;28;20123;-82
2023/09/20 01:22:46;;;;;;;8.80;6.05;;;;;;;17.95;69.62;100163.69;5051064;28;20021;-83
2023/09/20 01:25:21;;;;;;;11.02;5.93;;;;;;;18.57;69.41;100191.59;5052506;28;20094;-82
2023/09/20 01:27:47;;;;;;;9.75;5.60;;;;;;;18.62;69.14;100195.09;5047793;28;20490;-83
2023/09/20 01:30:12;;;;;;;10.63;6.10;;;;;;;18.50;68.86;100177.56;5031385;28;20056;-83
2023/09/20 01:32:38;;;;;;;9.27;5.40;;;;;;;18.51;68.64;100181.88;5047654;28;20047;-83
2023/09/20 01:35:07;;;;;;;10.70;5.20;;;;;;;18.70;68.54;100191.06;5051104;28;20049;-83
2023/09/20 01:37:33;;;;;;;9.95;5.82;;;;;;;18.34;68.40;100172.13;5052570;28;20065;-82
2023/09/20 01:39:58;;;;;;;9.40;5.80;;;;;;;18.48;67.82;100200.22;5051181;28;20056;-82
2023/09/20 01:42:25;;;;;;;9.52;5.50;;;;;;;18.33;68.51;100173.22;5052475;28;20029;-82
2023/09/20 01:44:51;;;;;;;11.30;6.28;;;;;;;18.36;67.90;100175.38;5051987;28;20553;-81
2023/09/20 01:47:16;;;;;;;10.68;6.05;;;;;;;18.32;67.60;100174.28;5065869;28;20107;-81
2023/09/20 01:49:42;;;;;;;9.43;6.10;;;;;;;18.44;67.59;100199.13;5070718;28;20471;-82
2023/09/20 01:52:09;;;;;;;10.98;6.78;;;;;;;18.28;68.59;100173.19;5065575;28;20067;-82
2023/09/20 01:54:35;;;;;;;11.88;6.40;;;;;;;18.45;68.88;100162.97;5051489;28;20029;-82
2023/09/20 01:57:00;;;;;;;9.23;6.13;;;;;;;18.37;68.28;100171.59;5061932;28;20059;-81
2023/09/20 01:59:26;;;;;;;9.52;6.22;;;;;;;18.48;68.21;100189.41;5070778;28;20581;-81
2023/09/20 02:01:51;;;;;;;11.57;6.85;;;;;;;18.51;68.27;100176.47;5067161;28;20040;-82
2023/09/20 02:04:17;;;;;;;10.57;6.38;;;;;;;18.48;67.93;100183.22;5052382;28;20041;-81
2023/09/20 02:06:43;;;;;;;8.73;5.45;;;;;;;18.20;68.45;100182.63;5051745;28;20024;-81
2023/09/20 02:09:09;;;;;;;13.27;6.70;;;;;;;18.26;67.82;100175.34;5051977;28;20036;-81
2023/09/20 02:11:34;;;;;;;12.18;7.40;;;;;;;18.34;68.28;100185.63;5050781;28;20033;-84
2023/09/20 02:14:02;;;;;;;13.13;7.03;;;;;;;18.32;68.52;100184.28;5051745;28;20047;-82
2023/09/20 02:16:27;;;;;;;;;;;;;;;18.37;68.62;100195.91;5051998;28;20112;-82
2023/09/20 02:18:53;;;;;;;11.30;6.75;;;;;;;18.17;68.54;100198.56;5051517;28;19964;-81
2023/09/20 02:21:19;;;;;;;15.48;7.72;;;;;;;18.04;68.11;100162.91;5050506;28;20022;-83
2023/09/20 02:23:45;;;;;;;14.43;7.20;;;;;;;18.22;68.18;100202.06;5051464;28;20098;-82
2023/09/20 02:26:12;;;;;;;10.90;6.65;;;;;;;18.12;69.42;100160.75;5057298;28;20115;-82
2023/09/20 02:28:38;;;;;;;11.45;6.90;;;;;;;18.76;67.39;100192.69;5049821;28;20037;-82
2023/09/20 02:31:03;;;;;;;10.93;6.70;;;;;;;18.59;66.77;100203.78;5049727;28;20186;-82
2023/09/20 02:33:30;;;;;;;11.73;6.28;;;;;;;18.35;66.59;100183.72;5050089;28;20040;-82
2023/09/20 02:35:55;;;;;;;10.13;5.35;;;;;;;18.26;67.16;100178.03;5050249;28;20024;-81
2023/09/20 02:38:21;;;;;;;10.82;5.60;;;;;;;18.33;67.31;100186.72;5049945;28;20477;-82
2023/09/20 02:40:46;;;;;;;10.10;5.95;;;;;;;18.41;67.46;100188.88;5060763;28;20383;-83
2023/09/20 02:43:16;;;;;;;9.30;6.30;;;;;;;18.60;65.96;100204.56;5060740;28;20033;-82
2023/09/20 02:45:45;;;;;;;10.45;5.65;;;;;;;18.39;64.26;100176.75;5049830;28;20488;-82
2023/09/20 02:48:10;;;;;;;8.57;5.22;;;;;;;18.38;64.53;100167.81;5063126;28;20496;-82
2023/09/20 02:50:36;;;;;;;12.07;5.60;;;;;;;18.79;64.37;100213.78;5071257;28;20025;-81
2023/09/20 02:53:03;;;;;;;9.70;5.63;;;;;;;18.97;64.13;100220.53;5063465;28;20478;-81
2023/09/20 02:55:31;;;;;;;;;;;;;;;18.76;65.77;100214.31;5050426;28;20371;-81
2023/09/20 02:57:56;;;;;;;8.68;5.38;;;;;;;18.55;64.74;100193.75;5051433;28;19971;-82
2023/09/20 03:00:33;;;;;;;10.20;5.68;;;;;;;18.15;67.01;100206.09;5050729;28;20448;-82
2023/09/20 03:03:02;;;;;;;8.27;4.97;;;;;;;18.32;66.91;100185.06;5049960;28;20505;-82
2023/09/20 03:05:32;;;;;;;10.88;6.10;;;;;;;17.75;68.59;100196.75;5050931;28;20029;-82
2023/09/20 03:07:58;;;;;;;14.23;7.35;;;;;;;18.10;65.46;100187.19;5070722;28;20071;-82
2023/09/20 03:10:25;;;;;;;15.02;8.23;;;;;;;17.98;65.42;100163.97;5073553;28;20048;-81
2023/09/20 03:12:57;;;;;;;15.02;8.80;;;;;;;18.13;68.60;100200.97;5073701;28;20020;-82
2023/09/20 03:15:25;;;;;;;15.27;7.78;;;;;;;18.04;68.23;100206.06;5074591;28;20493;-82
2023/09/20 03:17:54;;;;;;;12.43;7.78;;;;;;;18.31;67.55;100202.38;5068003;28;20059;-81
2023/09/20 03:20:23;;;;;;;13.05;7.13;;;;;;;18.16;68.04;100186.94;5055205;28;20037;-81
2023/09/20 03:22:53;;;;;;;13.00;7.90;;;;;;;17.99;67.70;100154.78;5054745;28;20029;-81
2023/09/20 03:25:20;;;;;;;12.30;7.32;;;;;;;18.04;67.95;100176.38;5053103;28;20174;-82
2023/09/20 03:27:46;;;;;;;15.30;7.97;;;;;;;17.96;66.33;100203.88;5060991;28;20021;-81
2023/09/20 03:30:14;;;;;;;16.60;8.15;;;;;;;17.87;66.19;100183.88;5053184;28;20029;-82
2023/09/20 03:32:42;;;;;;;11.98;7.38;;;;;;;17.99;68.39;100187.16;5052576;28;20028;-82
2023/09/20 03:35:09;;;;;;;16.67;7.30;;;;;;;17.73;67.80;100166.53;5052930;28;20131;-81
2023/09/20 03:37:38;;;;;;;12.55;6.72;;;;;;;17.82;68.51;100200.84;5054548;28;20063;-82
2023/09/20 03:40:06;;;;;;;11.15;6.60;;;;;;;17.51;71.13;100191.78;5074368;28;20035;-81
2023/09/20 03:42:32;;;;;;;11.73;6.50;;;;;;;17.42;70.66;100179.88;5073967;28;20095;-81
2023/09/20 03:44:58;;;;;;;12.68;6.75;;;;;;;17.39;70.85;100193.88;5073885;28;20036;-82
2023/09/20 03:47:27;;;;;;;11.57;6.80;;;;;;;17.21;71.50;100187.03;5073971;28;20028;-82
2023/09/20 03:49:53;;;;;;;10.50;6.50;;;;;;;17.07;72.10;100195.56;5052844;28;20088;-84
2023/09/20 03:52:19;;;;;;;12.63;6.47;;;;;;;16.95;73.12;100184.16;5053917;28;20025;-81
2023/09/20 03:54:50;;;;;;;9.98;6.50;;;;;;;16.81;72.97;100188.34;5067945;28;20063;-81
2023/09/20 03:57:15;;;;;;;9.80;6.95;;;;;;;16.94;73.86;100200.56;5049600;28;20025;-81
2023/09/20 03:59:41;;;;;;;11.05;6.53;;;;;;;17.01;74.38;100193.09;5067178;28;20033;-82
2023/09/20 04:02:12;;;;;;;10.50;6.40;;;;;;;17.43;73.76;100208.47;5073919;28;20024;-82
2023/09/20 04:04:38;;;;;;;14.38;6.18;;;;;;;17.34;73.03;100201.94;5061584;28;20036;-81
2023/09/20 04:07:04;;;;;;;12.70;6.30;;;;;;;17.04;73.58;100188.00;5052359;28;20489;-81
2023/09/20 04:09:32;;;;;;;9.52;6.05;;;;;;;17.22;72.30;100213.72;5053556;28;20174;-82
2023/09/20 04:11:57;;;;;;;;;;;;;;;17.27;73.34;100219.13;5052938;28;20485;-82
2023/09/20 04:14:24;;;;;;;15.25;6.30;;;;;;;17.19;73.05;100184.59;5051849;28;19923;-83
2023/09/20 04:16:49;;;;;;;12.90;6.78;;;;;;;17.26;72.28;100198.66;5051287;28;20025;-81
2023/09/20 04:19:15;;;;;;;10.45;5.80;;;;;;;17.11;73.79;100198.56;5062768;28;20042;-82
2023/09/20 04:21:40;;;;;;;13.70;6.47;;;;;;;17.20;73.27;100197.00;5066541;28;20055;-83
2023/09/20 04:24:06;;;;;;;13.48;6.80;;;;;;;17.19;72.83;100192.69;5052974;28;20454;-82
2023/09/20 04:26:32;;;;;;;13.05;6.45;;;;;;;17.44;72.85;100221.66;5051846;28;20036;-82
2023/09/20 04:28:58;;;;;;;13.65;6.88;;;;;;;17.53;71.28;100197.75;5053190;28;20091;-82
2023/09/20 04:31:23;;;;;;;12.60;5.57;;;;;;;17.42;70.91;100217.63;5051960;28;20029;-81
2023/09/20 04:33:49;;;;;;;13.98;7.03;;;;;;;17.29;71.61;100218.09;5051509;28;20035;-82
2023/09/20 04:36:14;;;;;;;11.52;6.30;;;;;;;17.20;73.43;100228.50;5051841;28;20027;-82
2023/09/20 04:38:41;;;;;;;10.98;6.63;;;;;;;17.20;72.54;100197.00;5055968;28;20112;-84
2023/09/20 04:41:10;;;;;;;11.48;6.30;;;;;;;17.17;72.23;100219.06;5071839;28;20020;-81
2023/09/20 04:43:38;;;;;;;11.93;6.55;;;;;;;17.12;71.50;100188.56;5073078;28;20111;-82
2023/09/20 04:46:03;;;;;;;11.65;6.03;;;;;;;17.37;73.26;100233.78;5055695;28;20025;-81
2023/09/20 04:48:30;;;;;;;14.52;6.13;;;;;;;17.24;72.79;100214.28;5052823;28;20029;-82
2023/09/20 04:50:55;;;;;;;12.85;6.10;;;;;;;17.43;72.53;100221.94;5051767;28;20032;-84
2023/09/20 04:53:21;;;;;;;11.88;6.97;;;;;;;16.68;73.72;100192.25;5053070;28;20456;-82
2023/09/20 04:55:47;;;;;;;8.48;6.03;;;;;;;16.96;74.04;100233.44;5051544;28;20029;-81
2023/09/20 04:58:12;;;;;;;11.20;5.75;;;;;;;17.24;73.14;100216.97;5052958;28;20071;-82
2023/09/20 05:00:38;;;;;;;11.85;6.20;;;;;;;17.10;72.53;100214.97;5069783;28;20054;-82
2023/09/20 05:03:04;;;;;;;10.30;6.22;;;;;;;17.37;72.52;100223.78;5059839;28;20035;-81
2023/09/20 05:05:29;;;;;;;9.70;6.10;;;;;;;17.62;72.02;100233.09;5052241;28;20835;-81
2023/09/20 05:07:56;;;;;;;14.70;6.70;;;;;;;17.70;70.42;100221.00;5051184;28;20108;-82
2023/09/20 05:10:22;;;;;;;12.10;6.15;;;;;;;17.61;72.06;100232.28;5065895;28;20024;-83
2023/09/20 05:12:48;;;;;;;12.35;5.90;;;;;;;17.76;70.68;100196.50;5072677;28;20416;-83
2023/09/20 05:15:15;;;;;;;12.38;6.40;;;;;;;18.04;71.02;100243.84;5063966;28;20555;-82
2023/09/20 05:17:43;;;;;;;10.25;6.60;;;;;;;17.78;70.72;100197.03;5050926;28;20067;-82
2023/09/20 05:20:14;;;;;;;;;;;;;;;18.04;71.54;100243.84;5051827;28;20029;-83
2023/09/20 05:22:40;;;;;;;10.75;6.47;;;;;;;18.13;70.69;100236.06;5050597;28;19952;-82
2023/09/20 05:25:07;;;;;;;11.18;6.72;;;;;;;18.35;70.20;100248.53;5052148;28;20032;-82
2023/09/20 05:27:33;;;;;;;12.07;6.47;;;;;;;18.07;70.52;100213.63;5050679;28;20048;-84
2023/09/20 05:29:59;;;;;;;12.27;7.32;;;;;;;18.12;70.51;100222.81;5059604;28;20048;-82
2023/09/20 05:32:24;;;;;;;11.40;6.25;;;;;;;17.86;72.13;100217.34;5070997;28;20092;-82
2023/09/20 05:34:50;;;;;;;10.30;6.97;;;;;;;17.76;72.43;100220.75;5068727;28;20675;-83
2023/09/20 05:37:16;;;;;;;16.40;7.05;;;;;;;18.31;70.77;100223.97;5051760;28;20036;-83
2023/09/20 05:39:43;;;;;;;12.50;6.82;;;;;;;18.48;70.38;100259.63;5052109;28;20025;-83
2023/09/20 05:42:09;;;;;;;10.27;6.43;;;;;;;18.62;70.11;100234.81;5050709;28;20036;-83
2023/09/20 05:44:36;;;;;;;11.43;6.43;;;;;;;18.83;69.56;100250.00;5050516;28;20276;-83
2023/09/20 05:47:03;;;;;;;10.45;6.60;;;;;;;19.11;68.85;100250.53;5050455;28;20060;-84
2023/09/20 05:49:29;;;;;;;13.15;6.30;;;;;;;19.49;67.49;100269.97;5051022;28;20044;-84
2023/09/20 05:51:56;;;;;;;13.90;6.95;;;;;;;19.79;66.74;100273.72;5072132;28;20048;-82
2023/09/20 05:54:22;;;;;;;14.27;7.57;;;;;;;19.89;65.48;100270.97;5069960;28;20120;-84
2023/09/20 05:56:48;;;;;;;14.05;7.53;;;;;;;19.85;66.22;100264.50;5054799;28;20052;-85
2023/09/20 05:59:14;;;;;;;15.60;7.43;;;;;;;19.85;66.40;100256.38;5050229;28;20025;-81
2023/09/20 06:01:40;;;;;;;20.90;10.45;;;;;;;20.24;64.81;100252.97;5069262;28;20511;-81
2023/09/20 06:04:12;;;;;;;15.10;8.05;;;;;;;20.24;63.97;100223.97;5070180;28;20378;-88
2023/09/20 06:06:38;;;;;;;13.35;8.38;;;;;;;20.38;64.20;100248.56;5060294;28;20040;-82
2023/09/20 06:09:05;;;;;;;9.07;5.93;;;;;;;20.52;64.59;100277.75;5050281;28;20486;-82
2023/09/20 06:11:30;;;;;;;12.63;6.53;;;;;;;20.44;65.13;100284.56;5051321;28;20043;-81
2023/09/20 06:13:55;;;;;;;10.98;5.93;;;;;;;20.51;64.93;100276.13;5051631;28;20017;-83
2023/09/20 06:16:22;;;;;;;9.93;6.43;;;;;;;20.45;64.59;100238.25;5053639;28;20040;-81
2023/09/20 06:18:51;;;;;;;12.35;5.93;;;;;;;20.82;64.66;100283.00;5050237;28;20461;-82
2023/09/20 06:21:19;;;;;;;10.50;5.88;;;;;;;20.97;63.42;100283.97;5051037;28;20032;-81
2023/09/20 06:23:45;;;;;;;9.10;5.60;;;;;;;20.85;63.77;100274.28;5051422;28;20094;-82
2023/09/20 06:26:12;;;;;;;10.88;6.50;;;;;;;21.13;63.71;100293.63;5051279;28;20455;-82
2023/09/20 06:28:41;;;;;;;9.45;5.78;;;;;;;21.28;62.90;100284.53;5051104;28;20025;-83
2023/09/20 06:31:13;;;;;;;11.43;7.50;;;;;;;21.27;63.41;100283.72;5060380;28;20174;-82
2023/09/20 06:33:40;;;;;;;8.65;5.93;;;;;;;21.70;60.94;100296.66;5071158;28;20032;-82
2023/09/20 06:36:05;;;;;;;12.33;6.07;;;;;;;21.57;61.23;100287.25;5066202;28;20036;-82
2023/09/20 06:38:34;;;;;;;7.38;5.63;;;;;;;21.41;61.84;100281.16;5060639;28;20553;-83
2023/09/20 06:40:59;;;;;;;9.13;5.65;;;;;;;21.72;60.63;100286.31;5063179;28;20021;-82
2023/09/20 06:43:32;;;;;;;12.18;8.10;;;;;;;21.78;60.94;100295.19;5050760;28;20025;-82
2023/09/20 06:45:59;;;;;;;8.82;5.50;;;;;;;21.80;59.40;100263.13;5049332;28;20025;-83
2023/09/20 06:48:24;;;;;;;11.57;5.85;;;;;;;21.97;60.64;100295.28;5049721;28;20037;-87
2023/09/20 06:50:51;;;;;;;10.63;6.15;;;;;;;22.09;59.80;100303.81;5051305;28;20024;-81
2023/09/20 06:53:17;;;;;;;10.38;5.45;;;;;;;22.12;59.25;100286.13;5050849;28;20029;-82
2023/09/20 06:55:48;;;;;;;9.60;5.95;;;;;;;22.16;59.76;100295.31;5051352;28;20095;-83
2023/09/20 06:58:14;;;;;;;9.20;5.90;;;;;;;22.42;59.59;100290.41;5051131;28;20039;-84
2023/09/20 07:00:39;;;;;;;8.63;5.45;;;;;;;22.59;58.40;100287.16;5051398;28;20025;-82
2023/09/20 07:03:05;;;;;;;8.45;5.28;;;;;;;22.40;60.03;100303.47;5069500;28;20029;-82
2023/09/20 07:05:31;;;;;;;14.02;6.47;;;;;;;22.41;58.70;100278.72;5069798;28;20474;-81
2023/09/20 07:08:01;;;;;;;9.60;5.60;;;;;;;22.64;58.84;100298.78;5068906;28;20424;-82
2023/09/20 07:10:32;;;;;;;11.75;5.63;;;;;;;22.80;58.51;100310.25;5069577;28;20548;-83
2023/09/20 07:12:58;;;;;;;9.63;5.15;;;;;;;22.70;58.46;100302.25;5050155;28;20453;-83
2023/09/20 07:15:28;;;;;;;9.80;5.82;;;;;;;23.01;57.40;100301.78;5050575;28;20075;-81
2023/09/20 07:18:00;;;;;;;9.13;5.88;;;;;;;23.31;55.15;100305.09;5052596;28;20031;-82
2023/09/20 07:20:29;;;;;;;10.82;5.97;;;;;;;23.40;56.31;100314.22;5050550;28;20413;-81
2023/09/20 07:22:54;;;;;;;10.38;6.40;;;;;;;23.38;55.67;100300.09;5050540;28;20029;-82
2023/09/20 07:25:21;;;;;;;10.75;7.07;;;;;;;23.48;54.39;100305.38;5050345;28;20124;-86
2023/09/20 07:27:48;;;;;;;12.27;7.20;;;;;;;23.66;54.81;100322.75;5049216;28;20040;-83
2023/09/20 07:30:18;;;;;;;13.00;8.43;;;;;;;23.53;54.56;100304.47;5050698;28;20094;-84
2023/09/20 07:32:49;;;;;;;12.85;7.10;;;;;;;23.76;53.72;100328.00;5050932;28;20113;-84
2023/09/20 07:35:27;;;;;;;11.18;7.07;;;;;;;23.79;54.60;100310.28;5050385;28;20085;-81
2023/09/20 07:37:57;;;;;;;10.13;6.20;;;;;;;24.34;53.17;100315.72;5049199;28;20116;-85
2023/09/20 07:40:29;;;;;;;10.43;6.63;;;;;;;24.33;52.76;100319.53;5049198;28;20379;-82
2023/09/20 07:43:07;;;;;;;10.18;5.93;;;;;;;24.36;51.87;100335.28;5065453;28;20497;-82
2023/09/20 07:45:38;;;;;;;9.75;6.20;;;;;;;24.33;51.76;100314.09;5070287;28;20051;-83
2023/09/20 07:48:11;;;;;;;15.20;6.18;;;;;;;24.47;51.55;100309.41;5059776;28;20029;-84
2023/09/20 07:50:41;;;;;;;9.20;5.90;;;;;;;24.45;51.23;100313.56;5048646;28;20032;-81
2023/09/20 07:53:10;;;;;;;11.68;5.95;;;;;;;24.39;52.13;100296.50;5067658;28;20086;-83
2023/09/20 07:55:43;;;;;;;11.43;5.90;;;;;;;24.96;49.85;100319.81;5073664;28;20028;-84
2023/09/20 07:58:09;;;;;;;12.20;5.97;;;;;;;24.84;50.83;100317.63;5061655;28;20040;-83
2023/09/20 08:00:40;;;;;;;8.55;5.90;;;;;;;25.14;48.91;100318.81;5052642;28;20029;-82
2023/09/20 08:03:06;;;;;;;8.27;5.72;;;;;;;25.11;50.27;100319.47;5068667;28;20032;-84
2023/09/20 08:05:33;;;;;;;9.77;5.60;;;;;;;25.03;49.32;100287.47;5063686;28;20402;-81
2023/09/20 08:07:58;;;;;;;8.30;5.97;;;;;;;25.20;49.92;100297.69;5053522;28;20020;-81
2023/09/20 08:10:24;;;;;;;7.57;5.30;;;;;;;25.29;49.75;100316.88;5053938;28;20558;-81
2023/09/20 08:12:49;;;;;;;8.05;5.65;;;;;;;25.48;49.14;100305.72;5053539;28;20029;-81
2023/09/20 08:15:14;;;;;;;11.35;5.32;;;;;;;25.73;47.62;100304.25;5051973;28;20056;-82
2023/09/20 08:20:26;;;;;;;8.10;5.70;;;;;;;25.46;47.63;100306.84;5053313;28;20090;-81
2023/09/20 09:01:21;;;;;;;11.45;6.00;;;;;;;27.34;43.38;100278.06;5072823;28;20039;-82
2023/09/20 09:03:47;;;;;;;9.93;6.10;;;;;;;27.36;42.66;100259.38;5059760;28;20074;-83
2023/09/20 09:06:12;;;;;;;11.23;6.32;;;;;;;27.72;42.40;100260.84;5052627;28;20163;-85
2023/09/20 09:08:38;;;;;;;9.48;5.85;;;;;;;27.92;41.74;100265.63;5052304;28;20111;-83
2023/09/20 09:11:03;;;;;;;16.92;9.55;;;;;;;27.68;42.74;100238.78;5051933;28;20410;-82
2023/09/20 09:13:30;;;;;;;15.10;8.20;;;;;;;28.13;42.12;100243.72;5059209;28;20040;-82
2023/09/20 09:15:55;;;;;;;8.65;5.88;;;;;;;28.28;41.12;100245.09;5071229;28;20056;-82
2023/09/20 09:18:21;;;;;;;11.32;7.30;;;;;;;28.76;39.80;100254.72;5070849;28;20032;-80
2023/09/20 09:20:51;;;;;;;11.32;5.72;;;;;;;28.65;39.95;100242.56;5052289;28;20037;-85
2023/09/20 09:23:44;;;;;;;7.82;5.32;;;;;;;28.97;40.84;100237.38;5052322;28;20548;-85
2023/09/20 09:26:10;;;;;;;8.80;5.90;;;;;;;28.99;38.85;100257.91;5055396;28;20039;-82
2023/09/20 09:28:48;;;;;;;9.07;5.57;;;;;;;28.70;39.89;100233.31;5069396;28;20029;-83
2023/09/20 09:31:17;;;;;;;9.98;5.45;;;;;;;28.74;39.12;100240.53;5052008;28;20123;-81
2023/09/20 09:33:43;;;;;;;8.85;6.28;;;;;;;29.01;39.87;100239.16;5050632;28;20021;-83
2023/09/20 09:36:10;;;;;;;7.45;5.60;;;;;;;28.94;39.33;100213.38;5051427;28;20062;-82
2023/09/20 09:38:39;;;;;;;8.90;5.75;;;;;;;29.20;39.60;100235.09;5050453;28;20092;-82
2023/09/20 09:41:05;;;;;;;9.77;5.47;;;;;;;29.72;37.49;100234.47;5058893;28;20548;-82
2023/09/20 09:43:32;;;;;;;11.18;5.60;;;;;;;29.95;37.00;100232.03;5065634;28;20099;-81
2023/09/20 09:46:10;;;;;;;8.98;5.45;;;;;;;30.04;36.68;100227.22;5051868;28;20037;-86
2023/09/20 09:48:42;;;;;;;9.38;4.88;;;;;;;29.88;36.49;100214.53;5031008;28;20037;-84
2023/09/20 09:51:09;;;;;;;7.25;4.93;;;;;;;29.79;36.99;100225.63;5030492;28;20041;-82
2023/09/20 09:53:37;;;;;;;7.72;5.22;;;;;;;29.74;36.55;100223.91;5035548;28;20154;-82
2023/09/20 09:56:06;;;;;;;8.07;4.82;;;;;;;29.33;37.28;100216.69;5051352;28;20782;-82
2023/09/20 09:58:33;;;;;;;8.48;5.45;;;;;;;29.96;36.13;100233.66;5051432;28;20112;-81
2023/09/20 10:01:05;;;;;;;8.35;4.88;;;;;;;30.00;36.44;100206.25;5051244;28;20039;-82
2023/09/20 10:03:34;;;;;;;7.47;4.93;;;;;;;30.14;35.84;100233.38;5052899;28;20426;-82
2023/09/20 10:06:28;;;;;;;10.93;6.32;;;;;;;30.10;36.27;100227.78;5070840;28;20020;-82
2023/09/20 10:08:54;;;;;;;7.93;4.53;;;;;;;29.98;35.78;100219.56;5033115;28;20067;-82
2023/09/20 10:11:24;;;;;;;8.10;4.75;;;;;;;29.87;35.31;100213.72;5069567;28;20170;-84
2023/09/20 10:13:53;;;;;;;6.03;4.03;;;;;;;30.12;33.96;100213.66;5067609;28;20028;-82
2023/09/20 10:16:18;;;;;;;6.10;4.43;;;;;;;29.89;34.59;100205.91;5050662;28;20696;-82
2023/09/20 10:18:53;;;;;;;9.05;5.10;;;;;;;30.05;35.36;100220.56;5069697;28;20036;-83
2023/09/20 10:21:26;;;;;;;6.72;4.10;;;;;;;30.03;34.54;100214.59;5066739;28;20408;-83
2023/09/20 10:24:07;;;;;;;7.57;4.30;;;;;;;29.99;35.36;100216.44;5067171;28;20024;-84
2023/09/20 10:26:38;;;;;;;8.40;4.10;;;;;;;30.01;34.82;100202.34;5050025;28;20481;-83
2023/09/20 10:29:26;;;;;;;6.13;4.10;;;;;;;30.62;33.57;100201.38;5031788;28;20082;-83
2023/09/20 10:32:07;;;;;;;5.93;4.20;;;;;;;31.18;32.52;100209.59;5069826;28;20455;-83
2023/09/20 10:34:39;;;;;;;7.38;4.68;;;;;;;30.97;33.02;100189.75;5069627;28;20031;-87
2023/09/20 10:37:08;;;;;;;6.18;4.00;;;;;;;31.27;32.66;100205.84;5070742;28;20752;-83
2023/09/20 10:39:34;;;;;;;7.97;4.10;;;;;;;31.47;33.70;100199.31;5067608;28;20099;-85
2023/09/20 10:42:12;;;;;;;6.25;3.80;;;;;;;31.38;32.16;100206.91;5051447;28;20033;-84
2023/09/20 10:44:41;;;;;;;6.22;3.80;;;;;;;32.05;30.57;100201.41;5051063;28;20020;-86
2023/09/20 10:47:14;;;;;;;5.78;3.75;;;;;;;32.13;30.94;100202.38;5049902;28;20110;-83
2023/09/20 10:49:51;;;;;;;6.53;3.50;;;;;;;31.92;31.18;100197.97;5051806;28;20111;-84
2023/09/20 10:52:37;;;;;;;6.60;3.88;;;;;;;31.61;31.14;100198.84;5071166;28;20120;-82
2023/09/20 10:55:22;;;;;;;5.63;2.90;;;;;;;31.42;31.51;100196.78;5062486;28;20021;-85
2023/09/20 10:57:49;;;;;;;6.97;3.05;;;;;;;30.70;32.14;100196.88;5051379;28;20413;-83
2023/09/20 11:00:15;;;;;;;5.95;3.22;;;;;;;30.79;32.01;100159.78;5051046;28;20056;-83
2023/09/20 11:02:42;;;;;;;6.78;3.15;;;;;;;31.06;31.66;100171.13;5048532;28;20116;-83
2023/09/20 11:05:11;;;;;;;;;;;;;;;31.50;31.20;100187.53;5067371;28;20028;-86
2023/09/20 11:07:39;;;;;;;4.85;3.60;;;;;;;31.94;30.76;100167.28;5072681;28;19917;-83
2023/09/20 11:10:10;;;;;;;5.40;3.05;;;;;;;31.49;30.64;100166.66;5066405;28;20025;-84
2023/09/20 11:12:36;;;;;;;6.32;3.70;;;;;;;31.36;31.29;100148.59;5049432;28;20139;-85
2023/09/20 11:15:05;;;;;;;6.53;3.50;;;;;;;31.55;31.08;100168.00;5049230;28;20125;-85
2023/09/20 11:17:31;;;;;;;6.70;3.65;;;;;;;31.27;32.06;100167.28;5050399;28;20047;-82
2023/09/20 11:19:58;;;;;;;6.05;3.58;;;;;;;31.15;32.44;100138.66;5051138;28;20401;-82
2023/09/20 11:22:23;;;;;;;7.43;3.20;;;;;;;31.56;32.01;100144.78;5063997;28;20056;-83
2023/09/20 11:24:51;;;;;;;5.18;3.45;;;;;;;31.70;31.15;100141.53;5057913;28;20067;-83
2023/09/20 11:27:17;;;;;;;6.93;3.00;;;;;;;32.53;30.91;100144.03;5055230;28;20040;-82
2023/09/20 11:29:48;;;;;;;5.75;3.33;;;;;;;32.67;30.60;100126.94;5060898;28;20025;-84
2023/09/20 11:32:15;;;;;;;6.97;5.00;;;;;;;32.15;29.44;100140.16;5063614;28;20032;-83
2023/09/20 11:34:43;;;;;;;8.23;3.10;;;;;;;31.49;30.88;100147.38;5080428;28;20100;-83
2023/09/20 11:37:09;;;;;;;10.32;3.45;;;;;;;31.54;30.25;100127.78;5078807;28;20028;-88
2023/09/20 11:39:34;;;;;;;7.70;3.42;;;;;;;31.76;30.06;100144.81;5065087;28;20040;-85
2023/09/20 11:42:01;;;;;;;6.15;2.95;;;;;;;31.75;30.53;100137.69;5059801;28;20075;-86
2023/09/20 11:44:27;;;;;;;6.70;3.20;;;;;;;31.73;29.89;100140.00;5048383;28;20024;-86
2023/09/20 11:46:57;;;;;;;6.45;2.83;;;;;;;31.75;29.96;100137.69;5062116;28;20117;-85
2023/09/20 11:49:24;;;;;;;6.57;3.28;;;;;;;32.72;29.11;100115.63;5071433;28;20098;-85
2023/09/20 11:51:50;;;;;;;5.10;2.70;;;;;;;32.23;30.06;100124.53;5063835;28;20048;-85
2023/09/20 11:54:16;;;;;;;6.85;3.20;;;;;;;31.59;30.22;100116.50;5056445;28;20040;-84
2023/09/20 11:56:47;;;;;;;5.18;2.90;;;;;;;31.41;29.95;100091.25;5070111;28;20040;-86
2023/09/20 11:59:14;;;;;;;6.85;2.83;;;;;;;32.28;30.28;100101.38;5064034;28;20077;-86
2023/09/20 12:01:41;;;;;;;5.75;2.90;;;;;;;32.25;29.86;100111.19;5053655;28;20440;-85
2023/09/20 12:04:09;;;;;;;7.03;2.80;;;;;;;31.85;29.90;100104.03;5068654;28;20039;-88
2023/09/20 12:06:35;;;;;;;5.95;2.63;;;;;;;32.42;29.32;100093.34;5045483;28;20040;-85